TimeCST,TemperatureF,Dew PointF,Humidity,Sea Level PressureIn,VisibilityMPH,Wind Direction,Wind SpeedMPH,Gust SpeedMPH,PrecipitationIn,Events,Conditions,WindDirDegrees,DateUTC
12:15 AM,39.2,33.8,81,30.26,10.0,West,3.5,-,N/A,,Clear,280,2013-02-01 06:15:00
12:35 AM,39.2,35.6,87,30.28,10.0,NW,4.6,-,N/A,,Clear,320,2013-02-01 06:35:00
12:55 AM,39.2,33.8,81,30.28,10.0,NNW,11.5,-,N/A,,Clear,340,2013-02-01 06:55:00
1:15 AM,39.2,35.6,87,30.30,10.0,NNW,8.1,-,N/A,,Clear,340,2013-02-01 07:15:00
1:35 AM,39.2,35.6,87,30.30,10.0,NNW,6.9,-,N/A,,Clear,340,2013-02-01 07:35:00
1:55 AM,39.2,35.6,87,30.31,10.0,North,13.8,-,N/A,,Clear,350,2013-02-01 07:55:00
2:15 AM,39.2,35.6,87,30.33,10.0,North,18.4,21.9,N/A,,Mostly Cloudy,350,2013-02-01 08:15:00
2:35 AM,37.4,33.8,87,30.34,10.0,North,15.0,21.9,N/A,,Mostly Cloudy,360,2013-02-01 08:35:00
2:55 AM,35.6,32.0,87,30.35,10.0,North,12.7,21.9,N/A,,Partly Cloudy,350,2013-02-01 08:55:00
3:15 AM,33.8,32.0,93,30.36,10.0,NNW,13.8,-,N/A,,Clear,340,2013-02-01 09:15:00
3:35 AM,33.8,32.0,93,30.36,10.0,NNW,10.4,-,N/A,,Clear,330,2013-02-01 09:35:00
3:55 AM,33.8,30.2,87,30.38,10.0,NNW,9.2,-,N/A,,Clear,340,2013-02-01 09:55:00
4:15 AM,32.0,30.2,93,30.38,10.0,NNW,8.1,20.7,N/A,,Clear,340,2013-02-01 10:15:00
4:35 AM,32.0,30.2,93,30.39,10.0,NNW,11.5,21.9,N/A,,Clear,340,2013-02-01 10:35:00
4:55 AM,32.0,28.4,87,30.40,10.0,NNW,9.2,19.6,N/A,,Clear,340,2013-02-01 10:55:00
5:15 AM,32.0,28.4,87,30.41,10.0,NNW,11.5,17.3,N/A,,Clear,340,2013-02-01 11:15:00
5:35 AM,30.2,26.6,86,30.42,10.0,NNW,10.4,20.7,N/A,,Clear,340,2013-02-01 11:35:00
5:55 AM,30.2,26.6,86,30.42,10.0,NNW,9.2,-,N/A,,Clear,340,2013-02-01 11:55:00
6:35 AM,30.2,26.6,86,30.45,10.0,North,8.1,-,N/A,,Clear,350,2013-02-01 12:35:00
6:55 AM,28.4,24.8,86,30.46,10.0,North,11.5,-,N/A,,Clear,10,2013-02-01 12:55:00
7:15 AM,28.4,23.0,80,30.46,9.0,North,9.2,-,N/A,,Clear,10,2013-02-01 13:15:00
7:55 AM,30.2,24.8,80,30.47,9.0,North,10.4,16.1,N/A,,Clear,10,2013-02-01 13:55:00
8:15 AM,32.0,26.6,80,30.48,9.0,North,15.0,28.8,N/A,,Clear,360,2013-02-01 14:15:00
8:35 AM,32.0,26.6,80,30.49,10.0,North,10.4,26.5,N/A,,Clear,360,2013-02-01 14:35:00
8:55 AM,32.0,26.6,80,30.51,8.0,NE,6.9,-,N/A,,Clear,40,2013-02-01 14:55:00
9:15 AM,33.8,28.4,81,30.52,9.0,North,9.2,-,N/A,,Clear,350,2013-02-01 15:15:00
9:35 AM,33.8,28.4,81,30.51,9.0,NE,6.9,-,N/A,,Clear,40,2013-02-01 15:35:00
9:55 AM,35.6,28.4,75,30.53,9.0,NNE,6.9,-,N/A,,Clear,20,2013-02-01 15:55:00
10:15 AM,35.6,28.4,75,30.52,8.0,North,6.9,-,N/A,,Clear,360,2013-02-01 16:15:00
10:35 AM,37.4,28.4,70,30.52,9.0,NE,4.6,-,N/A,,Clear,40,2013-02-01 16:35:00
10:55 AM,37.4,28.4,70,30.52,10.0,NNE,5.8,-,N/A,,Clear,20,2013-02-01 16:55:00
11:15 AM,39.2,28.4,65,30.52,10.0,NNW,5.8,-,N/A,,Clear,330,2013-02-01 17:15:00
11:35 AM,39.2,30.2,70,30.52,8.0,North,4.6,-,N/A,,Clear,350,2013-02-01 17:35:00
11:55 AM,39.2,32.0,75,30.51,9.0,NNE,8.1,-,N/A,,Clear,20,2013-02-01 17:55:00
12:15 PM,41.0,32.0,70,30.50,10.0,North,4.6,-,N/A,,Clear,350,2013-02-01 18:15:00
12:35 PM,42.8,30.2,61,30.49,9.0,NNW,8.1,-,N/A,,Clear,340,2013-02-01 18:35:00
12:55 PM,42.8,30.2,61,30.47,9.0,NNW,4.6,-,N/A,,Clear,340,2013-02-01 18:55:00
1:15 PM,42.8,32.0,66,30.47,10.0,North,8.1,-,N/A,,Clear,360,2013-02-01 19:15:00
1:35 PM,42.8,32.0,66,30.47,9.0,NNW,6.9,-,N/A,,Clear,340,2013-02-01 19:35:00
1:55 PM,44.6,32.0,61,30.46,9.0,North,8.1,-,N/A,,Clear,10,2013-02-01 19:55:00
2:15 PM,44.6,32.0,61,30.45,9.0,NE,6.9,-,N/A,,Clear,40,2013-02-01 20:15:00
2:35 PM,44.6,32.0,61,30.44,9.0,East,3.5,-,N/A,,Clear,80,2013-02-01 20:35:00
2:55 PM,44.6,32.0,61,30.44,9.0,North,5.8,-,N/A,,Clear,350,2013-02-01 20:55:00
3:15 PM,44.6,32.0,61,30.44,9.0,Calm,Calm,-,N/A,,Clear,0,2013-02-01 21:15:00
3:35 PM,44.6,32.0,61,30.43,9.0,NNW,5.8,-,N/A,,Clear,330,2013-02-01 21:35:00
3:55 PM,42.8,32.0,66,30.43,10.0,Calm,Calm,-,N/A,,Clear,0,2013-02-01 21:55:00
4:15 PM,42.8,32.0,66,30.43,10.0,Calm,Calm,-,N/A,,Clear,0,2013-02-01 22:15:00
4:35 PM,42.8,30.2,61,30.43,9.0,Calm,Calm,-,N/A,,Clear,0,2013-02-01 22:35:00
4:55 PM,42.8,32.0,66,30.42,9.0,Calm,Calm,-,N/A,,Clear,0,2013-02-01 22:55:00
5:15 PM,39.2,30.2,70,30.41,9.0,Calm,Calm,-,N/A,,Clear,0,2013-02-01 23:15:00
5:35 PM,35.6,28.4,75,30.40,10.0,North,3.5,-,N/A,,Clear,350,2013-02-01 23:35:00
5:55 PM,33.8,28.4,81,30.41,10.0,Calm,Calm,-,N/A,,Clear,0,2013-02-01 23:55:00
6:15 PM,32.0,26.6,80,30.40,10.0,Calm,Calm,-,N/A,,Clear,0,2013-02-02 00:15:00
6:35 PM,32.0,26.6,80,30.40,10.0,Calm,Calm,-,N/A,,Clear,0,2013-02-02 00:35:00
6:55 PM,30.2,24.8,80,30.40,10.0,North,-9999.0,-,N/A,,Clear,0,2013-02-02 00:55:00
7:15 PM,30.2,26.6,86,30.40,10.0,North,-9999.0,-,N/A,,Clear,0,2013-02-02 01:15:00
7:35 PM,28.4,24.8,86,30.40,10.0,North,-9999.0,-,N/A,,Clear,0,2013-02-02 01:35:00
7:55 PM,28.4,26.6,93,30.41,10.0,North,-9999.0,-,N/A,,Clear,0,2013-02-02 01:55:00
8:15 PM,28.4,24.8,86,30.41,10.0,Calm,Calm,-,N/A,,Clear,0,2013-02-02 02:15:00
8:35 PM,28.4,24.8,86,30.42,10.0,North,-9999.0,-,N/A,,Clear,0,2013-02-02 02:35:00
8:55 PM,28.4,24.8,86,30.41,10.0,Calm,Calm,-,N/A,,Clear,0,2013-02-02 02:55:00
9:15 PM,28.4,26.6,93,30.40,10.0,Calm,Calm,-,N/A,,Clear,0,2013-02-02 03:15:00
9:35 PM,28.4,26.6,93,30.41,10.0,North,-9999.0,-,N/A,,Clear,0,2013-02-02 03:35:00
9:55 PM,26.6,24.8,93,30.40,10.0,Calm,Calm,-,N/A,,Clear,0,2013-02-02 03:55:00
10:15 PM,26.6,26.6,100,30.41,10.0,North,-9999.0,-,N/A,,Clear,0,2013-02-02 04:15:00
10:35 PM,26.6,26.6,100,30.41,10.0,Calm,Calm,-,N/A,,Clear,0,2013-02-02 04:35:00
10:55 PM,26.6,26.6,100,30.40,10.0,North,-9999.0,-,N/A,,Clear,0,2013-02-02 04:55:00
11:15 PM,26.6,26.6,100,30.39,10.0,Calm,Calm,-,N/A,,Clear,0,2013-02-02 05:15:00
11:35 PM,26.6,26.6,100,30.37,9.0,SE,4.6,-,N/A,,Clear,140,2013-02-02 05:35:00
11:55 PM,26.6,26.6,100,30.36,10.0,SE,3.5,-,N/A,,Clear,140,2013-02-02 05:55:00